• Join FlightAware (Why Join?)
  • Login
  • US Flag 
02:58AM EDT


 

Airport Tracker/Info


-or-


 

Live Flight TrackerFlight Track Log ✈ SKW6345 ✈ 20-Jun-2013 ✈ KLAX - KSAN

Flight Track Log - Related Links

Times and Time Zones

All times are in EDT time to prevent confusion due to time zone crossing. See the SKW6345 flight status page for this flight to view local times or setup timezone preferences in your user account.

Time Position Orientation Groundspeed Altitude Reporting Facility
EDT Latitude Longitude Course Direction KTS MPH feet Rate Location/Type
08:40PM 33.9167 -118.4500 139° Southeast 176 203 2,400  Level Southern California TRACON
08:41PM 33.8667 -118.4500 180° South 189 217 3,700 1,320 Climbing Southern California TRACON
08:42PM 33.8167 -118.4667 195° South 194 223 5,100 1,500 Climbing Southern California TRACON
08:43PM 33.7500 -118.4333 157° South 194 223 6,800 1,380 Climbing Southern California TRACON
08:44PM 33.7167 -118.4000 140° Southeast 197 227 8,000 1,020 Climbing Southern California TRACON
08:45PM 33.7103 -118.1704 139° Southeast  Level Estimated
08:45PM 33.6833 -118.3500 129° Southeast 210 242 8,900  Level Southern California TRACON
08:46PM 33.6333 -118.2833 132° Southeast 245 282 9,000  Climbing Southern California TRACON
08:47PM 33.6000 -118.2167 121° Southeast 260 299 9,000 540 Level Southern California TRACON
08:48PM 33.5667 -118.1500 121° Southeast 244 281 10,100 960 Climbing Southern California TRACON
08:49PM 33.5228 -118.0553 119° Southeast 224 258 11,300 780 Climbing Los Angeles Center
08:50PM 33.4917 -117.9897 120° Southeast 226 260 12,100 720 Climbing Los Angeles Center
08:51PM 33.4561 -117.9297 125° Southeast 222 255 12,800 420 Climbing Los Angeles Center
08:52PM 33.4158 -117.8692 129° Southeast 229 264 13,000 120 Climbing Los Angeles Center
08:53PM 33.3833 -117.8167 127° Southeast 251 289 13,000  Level Southern California TRACON
08:54PM 33.3333 -117.7500 132° Southeast 258 297 13,000  Level Southern California TRACON
08:55PM 33.3000 -117.6833 121° Southeast 262 302 13,000  Level Southern California TRACON
08:56PM 33.2500 -117.6000 126° Southeast 264 304 13,000  Level Southern California TRACON
08:57PM 33.2167 -117.5333 121° Southeast 264 304 13,000  Level Southern California TRACON
08:58PM 33.1500 -117.5000 157° South 258 297 13,000  Level Southern California TRACON
08:58PM 33.1244 -117.4742 140° Southeast 256 295 13,000 -720 Level Los Angeles Center
08:59PM 33.0617 -117.4275 148° Southeast 261 300 11,900 -1,080 Descending Los Angeles Center
09:00PM 32.9942 -117.3789 149° Southeast 278 320 10,800 -1,500 Descending Los Angeles Center
09:01PM 32.9139 -117.3069 143° Southeast 302 348 8,800 -1,800 Descending Los Angeles Center
09:02PM 32.8589 -117.2242 128° Southeast 319 367 7,100 -1,200 Descending Los Angeles Center
09:03PM 32.8058 -117.1531 132° Southeast 297 342 6,400 -900 Descending Los Angeles Center
09:05PM 32.7561 -117.0747 127° Southeast 273 314 5,300 -780 Descending Los Angeles Center
09:06PM 32.7314 -116.9967 111° Southeast 256 295 4,800 -780 Descending Los Angeles Center
09:07PM 32.6861 -117.0033 187° South 210 242 3,700 -900 Descending Los Angeles Center
09:08PM 32.7000 -117.0667 285° West 160 184 2,900 -900 Descending Southern California TRACON
09:09PM 32.7167 -117.1167 292° West 148 170 1,900 -1,200 Descending Southern California TRACON
09:10PM 32.7333 -117.1500 301° West 131 151 600 -720 Descending Southern California TRACON
09:11PM 32.7378 -117.2078 275° West 134 154 300 -300 Descending Los Angeles Center